sensor_id;sensor_type;location;lat;lon;timestamp;pressure;altitude;pressure_sealevel;temperature;humidity
49943;BME280;36011;53.362;58.948;2023-04-30T00:00:13;97319.00;;;7.86;44.89
49943;BME280;36011;53.362;58.948;2023-04-30T00:03:17;97320.81;;;7.84;44.69
49943;BME280;36011;53.362;58.948;2023-04-30T00:06:20;97323.59;;;7.81;44.23
49943;BME280;36011;53.362;58.948;2023-04-30T00:09:24;97312.34;;;7.79;44.99
49943;BME280;36011;53.362;58.948;2023-04-30T00:12:27;97316.03;;;7.75;44.36
49943;BME280;36011;53.362;58.948;2023-04-30T00:15:30;97313.63;;;7.70;44.42
49943;BME280;36011;53.362;58.948;2023-04-30T00:18:34;97317.38;;;7.64;44.88
49943;BME280;36011;53.362;58.948;2023-04-30T00:21:37;97313.34;;;7.57;44.72
49943;BME280;36011;53.362;58.948;2023-04-30T00:24:40;97309.16;;;7.53;44.91
49943;BME280;36011;53.362;58.948;2023-04-30T00:27:43;97300.66;;;7.48;44.62
49943;BME280;36011;53.362;58.948;2023-04-30T00:30:47;97312.69;;;7.52;45.08
49943;BME280;36011;53.362;58.948;2023-04-30T00:33:51;97299.44;;;7.55;45.18
49943;BME280;36011;53.362;58.948;2023-04-30T00:36:54;97295.94;;;7.56;45.07
49943;BME280;36011;53.362;58.948;2023-04-30T00:39:58;97311.34;;;7.62;44.48
49943;BME280;36011;53.362;58.948;2023-04-30T00:43:01;97312.06;;;7.66;44.99
49943;BME280;36011;53.362;58.948;2023-04-30T00:46:04;97316.31;;;7.69;45.57
49943;BME280;36011;53.362;58.948;2023-04-30T00:49:08;97314.38;;;7.72;44.74
49943;BME280;36011;53.362;58.948;2023-04-30T00:52:11;97317.84;;;7.73;44.28
49943;BME280;36011;53.362;58.948;2023-04-30T00:55:14;97313.63;;;7.70;44.27
49943;BME280;36011;53.362;58.948;2023-04-30T00:58:18;97307.59;;;7.68;45.02
49943;BME280;36011;53.362;58.948;2023-04-30T01:01:22;97322.41;;;7.69;44.63
49943;BME280;36011;53.362;58.948;2023-04-30T01:04:26;97321.25;;;7.75;45.32
49943;BME280;36011;53.362;58.948;2023-04-30T01:07:31;97328.78;;;7.82;45.05
49943;BME280;36011;53.362;58.948;2023-04-30T01:11:21;97325.06;;;7.86;44.36
49943;BME280;36011;53.362;58.948;2023-04-30T01:20:04;97315.19;;;7.93;44.32
49943;BME280;36011;53.362;58.948;2023-04-30T01:29:49;97327.88;;;8.20;43.60
49943;BME280;36011;53.362;58.948;2023-04-30T01:32:52;97323.91;;;8.30;43.61
49943;BME280;36011;53.362;58.948;2023-04-30T01:39:25;97340.75;;;8.43;43.18
49943;BME280;36011;53.362;58.948;2023-04-30T01:45:41;97342.06;;;8.52;43.15
49943;BME280;36011;53.362;58.948;2023-04-30T01:52:23;97343.72;;;8.72;43.09
49943;BME280;36011;53.362;58.948;2023-04-30T01:58:39;97343.72;;;8.89;42.44
49943;BME280;36011;53.362;58.948;2023-04-30T02:01:43;97349.28;;;9.01;42.10
49943;BME280;36011;53.362;58.948;2023-04-30T02:04:46;97356.53;;;9.13;41.90
49943;BME280;36011;53.362;58.948;2023-04-30T02:07:48;97367.38;;;9.22;41.71
49943;BME280;36011;53.362;58.948;2023-04-30T02:10:53;97365.94;;;9.34;41.31
49943;BME280;36011;53.362;58.948;2023-04-30T02:13:57;97374.09;;;9.46;41.01
49943;BME280;36011;53.362;58.948;2023-04-30T02:17:00;97369.19;;;9.55;41.13
49943;BME280;36011;53.362;58.948;2023-04-30T02:20:03;97371.72;;;9.74;41.10
49943;BME280;36011;53.362;58.948;2023-04-30T02:23:07;97375.84;;;9.78;41.06
49943;BME280;36011;53.362;58.948;2023-04-30T02:26:11;97373.84;;;9.83;41.22
49943;BME280;36011;53.362;58.948;2023-04-30T02:29:15;97380.44;;;9.90;40.76
49943;BME280;36011;53.362;58.948;2023-04-30T02:32:19;97392.09;;;10.02;40.96
49943;BME280;36011;53.362;58.948;2023-04-30T02:35:23;97389.81;;;10.12;40.98
49943;BME280;36011;53.362;58.948;2023-04-30T02:38:27;97402.53;;;10.20;40.79
49943;BME280;36011;53.362;58.948;2023-04-30T02:41:31;97414.09;;;10.49;40.60
49943;BME280;36011;53.362;58.948;2023-04-30T02:44:33;97413.22;;;10.80;39.40
49943;BME280;36011;53.362;58.948;2023-04-30T02:47:37;97413.88;;;10.84;39.06
49943;BME280;36011;53.362;58.948;2023-04-30T02:50:41;97417.06;;;10.74;39.11
49943;BME280;36011;53.362;58.948;2023-04-30T02:53:45;97418.19;;;10.70;39.14
49943;BME280;36011;53.362;58.948;2023-04-30T02:56:48;97416.84;;;10.93;39.03
49943;BME280;36011;53.362;58.948;2023-04-30T02:59:52;97413.38;;;10.93;39.09
49943;BME280;36011;53.362;58.948;2023-04-30T03:02:56;97403.59;;;11.25;38.88
49943;BME280;36011;53.362;58.948;2023-04-30T03:06:01;97402.38;;;11.31;38.75
49943;BME280;36011;53.362;58.948;2023-04-30T03:09:05;97400.88;;;11.27;38.68
49943;BME280;36011;53.362;58.948;2023-04-30T03:12:09;97405.41;;;11.39;38.66
49943;BME280;36011;53.362;58.948;2023-04-30T03:15:12;97408.63;;;11.58;38.42
49943;BME280;36011;53.362;58.948;2023-04-30T03:18:16;97418.81;;;11.79;38.01
49943;BME280;36011;53.362;58.948;2023-04-30T03:21:20;97417.78;;;11.81;38.03
49943;BME280;36011;53.362;58.948;2023-04-30T03:24:24;97409.25;;;11.92;37.51
49943;BME280;36011;53.362;58.948;2023-04-30T03:27:27;97412.59;;;12.08;36.98
49943;BME280;36011;53.362;58.948;2023-04-30T03:30:32;97415.06;;;12.11;36.97
49943;BME280;36011;53.362;58.948;2023-04-30T03:33:36;97418.44;;;12.13;37.11
49943;BME280;36011;53.362;58.948;2023-04-30T03:36:39;97418.56;;;12.26;37.18
49943;BME280;36011;53.362;58.948;2023-04-30T03:39:43;97433.47;;;12.54;36.80
49943;BME280;36011;53.362;58.948;2023-04-30T03:42:46;97431.88;;;12.52;36.50
49943;BME280;36011;53.362;58.948;2023-04-30T03:45:50;97420.97;;;12.71;36.40
49943;BME280;36011;53.362;58.948;2023-04-30T03:48:54;97421.25;;;12.93;35.93
49943;BME280;36011;53.362;58.948;2023-04-30T03:51:58;97408.72;;;12.97;36.04
49943;BME280;36011;53.362;58.948;2023-04-30T03:55:03;97414.16;;;12.81;36.28
49943;BME280;36011;53.362;58.948;2023-04-30T03:58:07;97416.66;;;13.10;36.23
49943;BME280;36011;53.362;58.948;2023-04-30T04:01:10;97422.28;;;13.18;35.71
49943;BME280;36011;53.362;58.948;2023-04-30T04:04:12;97412.09;;;13.26;35.61
49943;BME280;36011;53.362;58.948;2023-04-30T04:07:16;97404.56;;;13.20;35.79
49943;BME280;36011;53.362;58.948;2023-04-30T04:10:20;97403.34;;;13.51;35.55
49943;BME280;36011;53.362;58.948;2023-04-30T04:13:24;97408.03;;;13.73;34.79
49943;BME280;36011;53.362;58.948;2023-04-30T04:16:27;97404.84;;;13.93;34.42
49943;BME280;36011;53.362;58.948;2023-04-30T04:19:30;97412.47;;;13.85;34.50
49943;BME280;36011;53.362;58.948;2023-04-30T04:22:32;97405.69;;;14.07;34.34
49943;BME280;36011;53.362;58.948;2023-04-30T04:25:36;97403.16;;;14.29;33.94
49943;BME280;36011;53.362;58.948;2023-04-30T04:28:41;97406.41;;;14.46;33.44
49943;BME280;36011;53.362;58.948;2023-04-30T04:31:45;97397.47;;;14.72;32.81
49943;BME280;36011;53.362;58.948;2023-04-30T04:34:49;97397.41;;;14.85;32.49
49943;BME280;36011;53.362;58.948;2023-04-30T04:37:53;97403.53;;;14.86;32.40
49943;BME280;36011;53.362;58.948;2023-04-30T04:40:55;97398.94;;;14.76;32.68
49943;BME280;36011;53.362;58.948;2023-04-30T04:44:00;97387.22;;;15.03;31.81
49943;BME280;36011;53.362;58.948;2023-04-30T04:47:04;97391.47;;;15.41;30.78
49943;BME280;36011;53.362;58.948;2023-04-30T04:50:07;97395.38;;;18.39;27.43
49943;BME280;36011;53.362;58.948;2023-04-30T04:53:10;97404.56;;;22.18;23.75
49943;BME280;36011;53.362;58.948;2023-04-30T04:56:14;97405.88;;;25.09;20.37
49943;BME280;36011;53.362;58.948;2023-04-30T04:59:18;97413.75;;;26.92;18.42
49943;BME280;36011;53.362;58.948;2023-04-30T05:02:24;97414.69;;;28.62;16.81
49943;BME280;36011;53.362;58.948;2023-04-30T05:05:27;97411.44;;;30.55;15.47
49943;BME280;36011;53.362;58.948;2023-04-30T05:08:31;97418.69;;;31.89;13.54
49943;BME280;36011;53.362;58.948;2023-04-30T05:11:36;97406.00;;;32.08;13.82
49943;BME280;36011;53.362;58.948;2023-04-30T05:14:37;97416.31;;;33.05;13.64
49943;BME280;36011;53.362;58.948;2023-04-30T05:17:41;97419.19;;;33.82;12.24
49943;BME280;36011;53.362;58.948;2023-04-30T05:20:44;97421.25;;;34.22;11.98
49943;BME280;36011;53.362;58.948;2023-04-30T05:23:47;97422.28;;;34.92;10.81
49943;BME280;36011;53.362;58.948;2023-04-30T05:26:54;97418.19;;;34.54;11.36
49943;BME280;36011;53.362;58.948;2023-04-30T05:29:58;97412.97;;;35.45;10.91
49943;BME280;36011;53.362;58.948;2023-04-30T05:33:10;97407.88;;;35.65;11.38
49943;BME280;36011;53.362;58.948;2023-04-30T05:36:12;97405.72;;;36.35;10.39
49943;BME280;36011;53.362;58.948;2023-04-30T05:39:15;97404.53;;;36.64;9.68
49943;BME280;36011;53.362;58.948;2023-04-30T05:42:20;97403.19;;;37.11;10.21
49943;BME280;36011;53.362;58.948;2023-04-30T05:45:26;97425.66;;;37.84;9.46
49943;BME280;36011;53.362;58.948;2023-04-30T05:48:29;97404.59;;;37.63;9.85
49943;BME280;36011;53.362;58.948;2023-04-30T05:51:33;97400.03;;;38.06;9.31
49943;BME280;36011;53.362;58.948;2023-04-30T05:54:38;97400.06;;;37.79;9.32
49943;BME280;36011;53.362;58.948;2023-04-30T05:57:42;97402.22;;;38.04;9.31
49943;BME280;36011;53.362;58.948;2023-04-30T06:00:47;97400.75;;;37.64;9.28
49943;BME280;36011;53.362;58.948;2023-04-30T06:03:48;97380.03;;;37.51;9.64
49943;BME280;36011;53.362;58.948;2023-04-30T06:06:51;97388.69;;;38.34;9.16
49943;BME280;36011;53.362;58.948;2023-04-30T06:09:57;97390.91;;;37.95;9.33
49943;BME280;36011;53.362;58.948;2023-04-30T06:13:01;97368.19;;;37.45;9.81
49943;BME280;36011;53.362;58.948;2023-04-30T06:16:05;97375.38;;;38.16;9.33
49943;BME280;36011;53.362;58.948;2023-04-30T06:19:06;97364.00;;;38.97;8.95
49943;BME280;36011;53.362;58.948;2023-04-30T06:22:12;97364.41;;;39.32;8.74
49943;BME280;36011;53.362;58.948;2023-04-30T06:25:17;97401.88;;;39.43;8.48
49943;BME280;36011;53.362;58.948;2023-04-30T06:28:21;97360.56;;;38.65;8.83
49943;BME280;36011;53.362;58.948;2023-04-30T06:31:25;97361.72;;;38.26;9.16
49943;BME280;36011;53.362;58.948;2023-04-30T06:34:28;97354.06;;;38.33;8.95
49943;BME280;36011;53.362;58.948;2023-04-30T06:37:31;97370.94;;;37.78;8.91
49943;BME280;36011;53.362;58.948;2023-04-30T06:40:39;97375.09;;;38.12;9.30
49943;BME280;36011;53.362;58.948;2023-04-30T06:43:45;97361.13;;;38.61;9.06
49943;BME280;36011;53.362;58.948;2023-04-30T06:46:46;97362.16;;;39.28;8.47
49943;BME280;36011;53.362;58.948;2023-04-30T06:49:49;97356.59;;;39.03;8.40
49943;BME280;36011;53.362;58.948;2023-04-30T06:52:54;97349.31;;;38.71;8.82
49943;BME280;36011;53.362;58.948;2023-04-30T06:55:57;97351.69;;;39.20;8.32
49943;BME280;36011;53.362;58.948;2023-04-30T06:59:00;97352.16;;;38.92;8.57
49943;BME280;36011;53.362;58.948;2023-04-30T07:02:01;97363.50;;;39.21;8.38
49943;BME280;36011;53.362;58.948;2023-04-30T07:05:06;97349.84;;;38.68;8.96
49943;BME280;36011;53.362;58.948;2023-04-30T07:08:09;97353.00;;;38.39;9.12
49943;BME280;36011;53.362;58.948;2023-04-30T07:11:16;97338.22;;;39.19;8.92
49943;BME280;36011;53.362;58.948;2023-04-30T07:14:20;97342.88;;;39.28;8.64
49943;BME280;36011;53.362;58.948;2023-04-30T07:17:25;97349.66;;;38.85;8.71
49943;BME280;36011;53.362;58.948;2023-04-30T07:20:31;97321.09;;;38.33;9.57
49943;BME280;36011;53.362;58.948;2023-04-30T07:23:33;97310.78;;;38.56;9.33
49943;BME280;36011;53.362;58.948;2023-04-30T07:26:39;97331.81;;;38.88;8.79
49943;BME280;36011;53.362;58.948;2023-04-30T07:29:42;97322.63;;;38.61;9.30
49943;BME280;36011;53.362;58.948;2023-04-30T07:32:45;97316.44;;;39.07;8.93
49943;BME280;36011;53.362;58.948;2023-04-30T07:35:46;97310.13;;;39.22;8.88
49943;BME280;36011;53.362;58.948;2023-04-30T07:38:47;97299.16;;;39.47;8.99
49943;BME280;36011;53.362;58.948;2023-04-30T07:41:51;97290.56;;;40.15;8.71
49943;BME280;36011;53.362;58.948;2023-04-30T07:44:56;97288.81;;;41.10;8.03
49943;BME280;36011;53.362;58.948;2023-04-30T07:47:57;97299.47;;;41.27;8.04
49943;BME280;36011;53.362;58.948;2023-04-30T07:51:01;97282.66;;;40.74;8.24
49943;BME280;36011;53.362;58.948;2023-04-30T07:54:06;97299.94;;;40.30;8.27
49943;BME280;36011;53.362;58.948;2023-04-30T07:57:08;97279.00;;;39.06;8.88
49943;BME280;36011;53.362;58.948;2023-04-30T08:00:09;97267.16;;;37.80;9.90
49943;BME280;36011;53.362;58.948;2023-04-30T08:03:13;97292.03;;;37.68;9.87
49943;BME280;36011;53.362;58.948;2023-04-30T08:06:16;97261.16;;;37.18;10.51
49943;BME280;36011;53.362;58.948;2023-04-30T08:09:19;97251.16;;;36.80;10.63
49943;BME280;36011;53.362;58.948;2023-04-30T08:12:25;97255.06;;;38.23;9.63
49943;BME280;36011;53.362;58.948;2023-04-30T08:15:28;97258.81;;;38.70;9.62
49943;BME280;36011;53.362;58.948;2023-04-30T08:18:32;97250.00;;;38.62;9.32
49943;BME280;36011;53.362;58.948;2023-04-30T08:21:35;97278.19;;;37.90;9.95
49943;BME280;36011;53.362;58.948;2023-04-30T08:24:39;97254.63;;;37.51;10.11
49943;BME280;36011;53.362;58.948;2023-04-30T08:27:40;97241.28;;;37.70;9.91
49943;BME280;36011;53.362;58.948;2023-04-30T08:30:46;97245.44;;;39.09;9.59
49943;BME280;36011;53.362;58.948;2023-04-30T08:33:49;97245.75;;;39.13;9.53
49943;BME280;36011;53.362;58.948;2023-04-30T08:36:53;97242.97;;;39.69;9.26
49943;BME280;36011;53.362;58.948;2023-04-30T08:39:56;97237.13;;;38.73;9.75
49943;BME280;36011;53.362;58.948;2023-04-30T08:43:08;97219.28;;;38.86;9.70
49943;BME280;36011;53.362;58.948;2023-04-30T08:46:11;97234.75;;;38.34;9.85
49943;BME280;36011;53.362;58.948;2023-04-30T08:49:13;97225.66;;;39.07;9.67
49943;BME280;36011;53.362;58.948;2023-04-30T08:52:17;97213.22;;;38.89;9.43
49943;BME280;36011;53.362;58.948;2023-04-30T08:55:21;97215.66;;;38.70;9.59
49943;BME280;36011;53.362;58.948;2023-04-30T08:58:24;97232.63;;;38.47;9.77
49943;BME280;36011;53.362;58.948;2023-04-30T09:01:28;97208.44;;;38.49;10.05
49943;BME280;36011;53.362;58.948;2023-04-30T09:04:30;97224.13;;;38.58;10.01
49943;BME280;36011;53.362;58.948;2023-04-30T09:07:33;97209.66;;;38.10;10.38
49943;BME280;36011;53.362;58.948;2023-04-30T09:10:39;97216.72;;;37.48;10.39
49943;BME280;36011;53.362;58.948;2023-04-30T09:13:43;97219.22;;;37.23;11.04
49943;BME280;36011;53.362;58.948;2023-04-30T09:16:48;97201.13;;;36.95;11.01
49943;BME280;36011;53.362;58.948;2023-04-30T09:19:49;97209.28;;;37.17;11.04
49943;BME280;36011;53.362;58.948;2023-04-30T09:23:03;97218.31;;;37.12;10.59
49943;BME280;36011;53.362;58.948;2023-04-30T09:26:09;97214.94;;;36.29;11.30
49943;BME280;36011;53.362;58.948;2023-04-30T09:29:19;97212.94;;;36.02;11.88
49943;BME280;36011;53.362;58.948;2023-04-30T09:32:23;97213.88;;;36.08;11.83
49943;BME280;36011;53.362;58.948;2023-04-30T09:35:31;97220.50;;;35.95;11.80
49943;BME280;36011;53.362;58.948;2023-04-30T09:38:34;97216.72;;;36.94;11.31
49943;BME280;36011;53.362;58.948;2023-04-30T09:41:38;97205.19;;;37.99;10.38
49943;BME280;36011;53.362;58.948;2023-04-30T09:44:41;97209.00;;;37.50;10.84
49943;BME280;36011;53.362;58.948;2023-04-30T09:47:45;97200.41;;;37.79;10.77
49943;BME280;36011;53.362;58.948;2023-04-30T09:50:49;97196.03;;;37.41;10.97
49943;BME280;36011;53.362;58.948;2023-04-30T09:53:50;97205.13;;;37.46;10.82
49943;BME280;36011;53.362;58.948;2023-04-30T09:56:56;97196.13;;;37.19;11.34
49943;BME280;36011;53.362;58.948;2023-04-30T10:00:00;97203.88;;;36.68;10.90
49943;BME280;36011;53.362;58.948;2023-04-30T10:03:10;97190.72;;;36.20;11.36
49943;BME280;36011;53.362;58.948;2023-04-30T10:06:12;97193.00;;;36.29;11.20
49943;BME280;36011;53.362;58.948;2023-04-30T10:09:17;97181.78;;;35.64;11.61
49943;BME280;36011;53.362;58.948;2023-04-30T10:12:22;97185.91;;;35.50;11.75
49943;BME280;36011;53.362;58.948;2023-04-30T10:15:24;97175.88;;;35.56;11.78
49943;BME280;36011;53.362;58.948;2023-04-30T10:18:33;97165.00;;;34.76;12.26
49943;BME280;36011;53.362;58.948;2023-04-30T10:21:37;97164.88;;;35.00;12.08
49943;BME280;36011;53.362;58.948;2023-04-30T10:24:44;97175.16;;;35.26;11.95
49943;BME280;36011;53.362;58.948;2023-04-30T10:27:49;97172.06;;;34.43;12.58
49943;BME280;36011;53.362;58.948;2023-04-30T10:30:53;97159.06;;;35.13;12.09
49943;BME280;36011;53.362;58.948;2023-04-30T10:34:01;97183.06;;;35.79;11.73
49943;BME280;36011;53.362;58.948;2023-04-30T10:37:08;97161.91;;;35.18;11.99
49943;BME280;36011;53.362;58.948;2023-04-30T10:40:16;97157.44;;;34.21;12.64
49943;BME280;36011;53.362;58.948;2023-04-30T10:43:18;97153.06;;;34.08;12.88
49943;BME280;36011;53.362;58.948;2023-04-30T10:46:26;97150.78;;;33.65;13.20
49943;BME280;36011;53.362;58.948;2023-04-30T10:49:28;97136.44;;;33.34;13.22
49943;BME280;36011;53.362;58.948;2023-04-30T10:52:31;97140.59;;;33.01;13.76
49943;BME280;36011;53.362;58.948;2023-04-30T10:55:37;97130.00;;;32.81;13.75
49943;BME280;36011;53.362;58.948;2023-04-30T10:58:45;97121.34;;;32.84;13.83
49943;BME280;36011;53.362;58.948;2023-04-30T11:08:10;97127.84;;;32.72;14.25
49943;BME280;36011;53.362;58.948;2023-04-30T11:11:17;97113.28;;;32.36;14.08
49943;BME280;36011;53.362;58.948;2023-04-30T11:14:20;97116.13;;;32.41;13.81
49943;BME280;36011;53.362;58.948;2023-04-30T11:17:23;97100.38;;;32.01;14.36
49943;BME280;36011;53.362;58.948;2023-04-30T11:20:26;97105.81;;;32.31;13.87
49943;BME280;36011;53.362;58.948;2023-04-30T11:23:27;97098.75;;;32.12;13.90
49943;BME280;36011;53.362;58.948;2023-04-30T11:26:28;97089.19;;;31.72;14.38
49943;BME280;36011;53.362;58.948;2023-04-30T11:29:31;97089.50;;;31.64;14.86
49943;BME280;36011;53.362;58.948;2023-04-30T11:32:34;97093.66;;;31.30;14.67
49943;BME280;36011;53.362;58.948;2023-04-30T11:35:37;97075.28;;;30.89;15.30
49943;BME280;36011;53.362;58.948;2023-04-30T11:38:41;97082.22;;;30.53;15.36
49943;BME280;36011;53.362;58.948;2023-04-30T11:41:45;97078.19;;;29.98;15.88
49943;BME280;36011;53.362;58.948;2023-04-30T11:44:51;97069.97;;;29.73;16.36
49943;BME280;36011;53.362;58.948;2023-04-30T11:47:53;97062.81;;;29.34;16.45
49943;BME280;36011;53.362;58.948;2023-04-30T11:50:57;97066.56;;;29.33;16.39
49943;BME280;36011;53.362;58.948;2023-04-30T11:54:00;97069.91;;;29.28;16.64
49943;BME280;36011;53.362;58.948;2023-04-30T11:57:01;97062.69;;;29.61;16.19
49943;BME280;36011;53.362;58.948;2023-04-30T12:00:06;97062.41;;;29.30;16.64
49943;BME280;36011;53.362;58.948;2023-04-30T12:03:13;97054.72;;;29.01;16.89
49943;BME280;36011;53.362;58.948;2023-04-30T12:06:24;97053.09;;;28.80;17.05
49943;BME280;36011;53.362;58.948;2023-04-30T12:09:28;97044.13;;;28.33;17.49
49943;BME280;36011;53.362;58.948;2023-04-30T12:12:32;97045.38;;;28.24;17.72
49943;BME280;36011;53.362;58.948;2023-04-30T12:15:39;97047.06;;;28.11;17.97
49943;BME280;36011;53.362;58.948;2023-04-30T12:18:40;97038.31;;;28.23;17.60
49943;BME280;36011;53.362;58.948;2023-04-30T12:21:44;97033.72;;;28.03;17.80
49943;BME280;36011;53.362;58.948;2023-04-30T12:24:48;97044.56;;;28.30;17.75
49943;BME280;36011;53.362;58.948;2023-04-30T12:27:52;97022.47;;;28.06;18.10
49943;BME280;36011;53.362;58.948;2023-04-30T12:30:56;97027.03;;;27.86;18.03
49943;BME280;36011;53.362;58.948;2023-04-30T12:33:57;97017.41;;;27.76;18.27
49943;BME280;36011;53.362;58.948;2023-04-30T12:36:58;97006.22;;;27.99;18.02
49943;BME280;36011;53.362;58.948;2023-04-30T12:40:02;97026.22;;;27.98;18.05
49943;BME280;36011;53.362;58.948;2023-04-30T12:43:06;97030.72;;;27.78;18.15
49943;BME280;36011;53.362;58.948;2023-04-30T12:46:13;97028.97;;;27.44;18.56
49943;BME280;36011;53.362;58.948;2023-04-30T12:49:33;97033.91;;;27.34;18.92
49943;BME280;36011;53.362;58.948;2023-04-30T12:52:35;97018.28;;;26.87;18.97
49943;BME280;36011;53.362;58.948;2023-04-30T12:55:37;97019.38;;;26.65;19.25
49943;BME280;36011;53.362;58.948;2023-04-30T12:58:39;97012.31;;;26.64;19.42
49943;BME280;36011;53.362;58.948;2023-04-30T13:01:43;97016.28;;;26.47;19.37
49943;BME280;36011;53.362;58.948;2023-04-30T13:04:46;97010.22;;;25.88;19.92
49943;BME280;36011;53.362;58.948;2023-04-30T13:07:51;97002.59;;;25.98;20.12
49943;BME280;36011;53.362;58.948;2023-04-30T13:10:57;96991.38;;;25.95;20.05
49943;BME280;36011;53.362;58.948;2023-04-30T13:14:02;97011.13;;;25.81;20.62
49943;BME280;36011;53.362;58.948;2023-04-30T13:17:06;97005.75;;;25.44;20.53
49943;BME280;36011;53.362;58.948;2023-04-30T13:20:09;97009.31;;;25.30;20.84
49943;BME280;36011;53.362;58.948;2023-04-30T13:23:10;96993.53;;;25.27;21.04
49943;BME280;36011;53.362;58.948;2023-04-30T13:26:14;96984.81;;;25.25;21.15
49943;BME280;36011;53.362;58.948;2023-04-30T13:29:18;97005.53;;;25.24;21.12
49943;BME280;36011;53.362;58.948;2023-04-30T13:32:20;97005.16;;;25.13;21.21
49943;BME280;36011;53.362;58.948;2023-04-30T13:35:24;96978.72;;;25.01;21.31
49943;BME280;36011;53.362;58.948;2023-04-30T13:38:27;96990.03;;;24.82;21.48
49943;BME280;36011;53.362;58.948;2023-04-30T13:41:31;96996.16;;;24.76;21.92
49943;BME280;36011;53.362;58.948;2023-04-30T13:44:34;96980.66;;;24.93;21.73
49943;BME280;36011;53.362;58.948;2023-04-30T13:47:36;96973.03;;;24.96;21.42
49943;BME280;36011;53.362;58.948;2023-04-30T13:50:39;96983.19;;;24.94;21.81
49943;BME280;36011;53.362;58.948;2023-04-30T13:53:42;96977.53;;;24.74;21.92
49943;BME280;36011;53.362;58.948;2023-04-30T13:56:43;96973.63;;;24.62;21.89
49943;BME280;36011;53.362;58.948;2023-04-30T13:59:48;96984.81;;;24.36;22.17
49943;BME280;36011;53.362;58.948;2023-04-30T14:02:53;96970.59;;;24.12;22.62
49943;BME280;36011;53.362;58.948;2023-04-30T14:05:55;96969.97;;;23.87;23.09
49943;BME280;36011;53.362;58.948;2023-04-30T14:08:58;96986.19;;;23.94;23.18
49943;BME280;36011;53.362;58.948;2023-04-30T14:12:01;96960.50;;;23.91;23.14
49943;BME280;36011;53.362;58.948;2023-04-30T14:15:04;96964.34;;;23.74;23.38
49943;BME280;36011;53.362;58.948;2023-04-30T14:18:08;96966.81;;;23.84;23.30
49943;BME280;36011;53.362;58.948;2023-04-30T14:21:09;96966.94;;;23.59;23.46
49943;BME280;36011;53.362;58.948;2023-04-30T14:24:11;96963.59;;;23.57;23.59
49943;BME280;36011;53.362;58.948;2023-04-30T14:27:17;96967.31;;;23.56;23.65
49943;BME280;36011;53.362;58.948;2023-04-30T14:30:20;96975.88;;;23.28;23.85
49943;BME280;36011;53.362;58.948;2023-04-30T14:33:23;96975.50;;;23.31;23.89
49943;BME280;36011;53.362;58.948;2023-04-30T14:36:27;96985.47;;;23.23;23.99
49943;BME280;36011;53.362;58.948;2023-04-30T14:39:28;96986.09;;;23.02;24.37
49943;BME280;36011;53.362;58.948;2023-04-30T14:42:30;96985.34;;;23.16;24.09
49943;BME280;36011;53.362;58.948;2023-04-30T14:45:31;96979.72;;;22.86;24.55
49943;BME280;36011;53.362;58.948;2023-04-30T14:48:33;96973.72;;;22.84;24.55
49943;BME280;36011;53.362;58.948;2023-04-30T14:51:34;96968.13;;;22.55;24.84
49943;BME280;36011;53.362;58.948;2023-04-30T14:54:37;96969.16;;;22.46;24.88
49943;BME280;36011;53.362;58.948;2023-04-30T14:57:41;96976.53;;;22.44;25.16
49943;BME280;36011;53.362;58.948;2023-04-30T15:00:45;96974.91;;;22.18;25.21
49943;BME280;36011;53.362;58.948;2023-04-30T15:03:52;96974.22;;;22.00;25.54
49943;BME280;36011;53.362;58.948;2023-04-30T15:06:58;96990.31;;;21.83;25.84
49943;BME280;36011;53.362;58.948;2023-04-30T15:10:00;96976.22;;;21.81;25.80
49943;BME280;36011;53.362;58.948;2023-04-30T15:13:04;96975.06;;;21.75;25.86
49943;BME280;36011;53.362;58.948;2023-04-30T15:16:05;96978.56;;;21.43;26.30
49943;BME280;36011;53.362;58.948;2023-04-30T15:19:09;96991.34;;;21.23;26.30
49943;BME280;36011;53.362;58.948;2023-04-30T15:22:12;96988.16;;;21.20;26.43
49943;BME280;36011;53.362;58.948;2023-04-30T15:25:15;96989.00;;;21.28;26.51
49943;BME280;36011;53.362;58.948;2023-04-30T15:28:22;96981.06;;;21.02;26.85
49943;BME280;36011;53.362;58.948;2023-04-30T15:31:26;96987.84;;;20.80;26.91
49943;BME280;36011;53.362;58.948;2023-04-30T15:34:30;97002.03;;;20.73;26.97
49943;BME280;36011;53.362;58.948;2023-04-30T15:37:31;96988.38;;;20.84;27.20
49943;BME280;36011;53.362;58.948;2023-04-30T15:40:34;96994.53;;;20.50;27.39
49943;BME280;36011;53.362;58.948;2023-04-30T15:43:38;96995.81;;;20.46;27.61
49943;BME280;36011;53.362;58.948;2023-04-30T15:46:41;97004.84;;;20.45;27.61
49943;BME280;36011;53.362;58.948;2023-04-30T15:49:43;97009.94;;;20.04;27.74
49943;BME280;36011;53.362;58.948;2023-04-30T15:52:44;96994.69;;;19.96;28.22
49943;BME280;36011;53.362;58.948;2023-04-30T15:55:47;97006.19;;;19.97;28.19
49943;BME280;36011;53.362;58.948;2023-04-30T15:58:48;97004.84;;;19.75;28.29
49943;BME280;36011;53.362;58.948;2023-04-30T16:01:50;97009.16;;;19.58;28.76
49943;BME280;36011;53.362;58.948;2023-04-30T16:04:54;97010.38;;;19.64;28.62
49943;BME280;36011;53.362;58.948;2023-04-30T16:07:55;97012.13;;;19.55;28.69
49943;BME280;36011;53.362;58.948;2023-04-30T16:10:58;97018.16;;;19.57;28.69
49943;BME280;36011;53.362;58.948;2023-04-30T16:14:03;97014.41;;;19.50;28.77
49943;BME280;36011;53.362;58.948;2023-04-30T16:17:04;97019.50;;;19.25;28.87
49943;BME280;36011;53.362;58.948;2023-04-30T16:20:05;97012.25;;;19.18;28.95
49943;BME280;36011;53.362;58.948;2023-04-30T16:23:08;97030.63;;;18.93;29.58
49943;BME280;36011;53.362;58.948;2023-04-30T16:26:10;97028.69;;;19.13;29.38
49943;BME280;36011;53.362;58.948;2023-04-30T16:29:11;97027.22;;;19.01;29.31
49943;BME280;36011;53.362;58.948;2023-04-30T16:32:15;97031.19;;;18.97;29.38
49943;BME280;36011;53.362;58.948;2023-04-30T16:35:16;97039.66;;;18.82;29.42